createdAt,value
2022-11-24T00:06:08.378Z,11.91
2022-11-24T00:46:08.505Z,11.91
2022-11-24T01:26:08.308Z,11.9
2022-11-24T01:46:07.560Z,11.9
2022-11-24T02:06:08.303Z,11.9
2022-11-24T02:46:08.296Z,11.89
2022-11-24T03:06:08.248Z,11.89
2022-11-24T03:26:08.232Z,11.89
2022-11-24T03:46:08.245Z,11.89
2022-11-24T04:06:08.203Z,11.89
2022-11-24T04:26:08.180Z,11.88
2022-11-24T04:46:08.201Z,11.88
2022-11-24T05:06:08.161Z,11.88
2022-11-24T05:26:08.116Z,11.88
2022-11-24T05:46:08.142Z,11.88
2022-11-24T06:26:07.543Z,11.87
2022-11-24T06:46:08.141Z,11.87
2022-11-24T08:06:23.483Z,11.87
2022-11-24T08:26:07.209Z,11.86
2022-11-24T08:46:07.453Z,11.86
2022-11-24T09:06:07.926Z,11.86
2022-11-24T09:26:07.144Z,11.86
2022-11-24T09:46:07.324Z,11.86
2022-11-24T10:06:07.357Z,11.86
2022-11-24T10:26:07.871Z,11.86
2022-11-24T10:46:07.915Z,11.85
2022-11-24T11:06:07.834Z,11.85
2022-11-24T11:26:07.802Z,11.85
2022-11-24T11:46:07.952Z,11.85
2022-11-24T12:06:06.989Z,11.85
2022-11-24T12:26:06.974Z,11.85
2022-11-24T12:46:11.131Z,11.85
2022-11-24T13:06:07.697Z,11.84
2022-11-24T13:26:07.544Z,11.84
2022-11-24T13:46:07.697Z,11.84
2022-11-24T14:06:07.134Z,11.84
2022-11-24T14:26:07.589Z,11.84
2022-11-24T14:46:07.573Z,11.84
2022-11-24T15:06:07.558Z,11.84
2022-11-24T15:26:07.549Z,11.84
2022-11-24T15:46:07.377Z,11.84
2022-11-24T16:46:07.498Z,11.84
2022-11-24T17:06:07.472Z,11.84
2022-11-24T17:26:07.458Z,11.84
2022-11-24T17:46:07.564Z,11.84
2022-11-24T18:26:07.438Z,11.83
2022-11-24T18:46:07.355Z,11.83
2022-11-24T19:06:07.411Z,11.84
2022-11-24T19:26:07.386Z,11.83
2022-11-24T19:46:06.632Z,11.83
2022-11-24T20:06:07.368Z,11.83
2022-11-24T20:46:06.830Z,11.83
2022-11-24T21:06:07.325Z,11.83
2022-11-24T21:26:10.288Z,11.83
2022-11-24T21:46:07.366Z,11.83
2022-11-24T22:06:07.293Z,11.83
2022-11-24T22:26:07.297Z,11.83
2022-11-24T22:46:06.521Z,11.83
2022-11-24T23:06:07.271Z,11.83
2022-11-24T23:26:07.253Z,11.83
